Time;durP1;ratioP1;P1;durP2;ratioP2;P2;SDS_P1;SDS_P2;PMS_P1;PMS_P2;Temp;Humidity;BMP_temperature;BMP_pressure;BME280_temperature;BME280_humidity;BME280_pressure;Samples;Min_cycle;Max_cycle;Signal;HPM_P1;HPM_P2
2021/03/15 00:00:30;;;;;;;3.23;2.70;;;6.00;1.00;;;;;;5071764;28;20236;-57
2021/03/15 00:02:56;;;;;;;6.20;2.70;;;6.10;1.00;;;;;;5070634;28;20946;-58
2021/03/15 00:05:23;;;;;;;3.47;2.43;;;6.00;1.00;;;;;;5071602;28;20200;-59
2021/03/15 00:07:49;;;;;;;3.60;2.63;;;6.00;1.00;;;;;;5072389;28;20180;-59
2021/03/15 00:10:16;;;;;;;3.70;2.53;;;5.80;1.00;;;;;;5070592;28;20454;-58
2021/03/15 00:12:42;;;;;;;5.13;2.87;;;5.90;1.00;;;;;;5073634;28;20580;-60
2021/03/15 00:15:13;;;;;;;3.83;3.30;;;6.00;1.00;;;;;;5067587;28;20448;-59
2021/03/15 00:17:39;;;;;;;6.37;2.53;;;5.90;1.00;;;;;;5071485;28;20438;-59
2021/03/15 00:20:09;;;;;;;4.17;3.10;;;5.90;1.00;;;;;;5071808;28;20548;-58
2021/03/15 00:22:35;;;;;;;4.47;3.07;;;6.00;1.00;;;;;;5070720;28;20180;-59
2021/03/15 00:25:00;;;;;;;3.00;2.53;;;6.10;1.00;;;;;;5068514;28;20480;-58
2021/03/15 00:27:27;;;;;;;4.30;3.23;;;6.30;1.00;;;;;;5069304;28;20187;-58
2021/03/15 00:29:52;;;;;;;2.90;2.60;;;6.20;1.00;;;;;;5071644;28;20210;-60
2021/03/15 00:32:19;;;;;;;2.90;2.60;;;6.30;1.00;;;;;;5068124;28;20780;-58
2021/03/15 00:34:45;;;;;;;2.40;2.20;;;6.30;1.00;;;;;;5070213;28;20198;-58
2021/03/15 00:37:11;;;;;;;4.40;2.70;;;6.40;1.00;;;;;;5071216;28;20448;-58
2021/03/15 00:39:37;;;;;;;2.70;2.50;;;6.50;1.00;;;;;;5070159;28;20468;-59
2021/03/15 00:42:03;;;;;;;4.13;3.53;;;6.60;1.00;;;;;;5067827;28;20191;-59
2021/03/15 00:44:29;;;;;;;3.07;2.60;;;6.70;1.00;;;;;;5070393;28;20552;-58
2021/03/15 00:46:54;;;;;;;3.27;2.97;;;6.60;1.00;;;;;;5068419;28;20544;-58
2021/03/15 00:49:20;;;;;;;5.73;3.33;;;6.50;1.00;;;;;;5069376;28;20208;-60
2021/03/15 00:51:45;;;;;;;4.10;2.90;;;6.50;1.00;;;;;;5070739;28;20211;-59
2021/03/15 00:54:11;;;;;;;4.50;3.10;;;6.60;1.00;;;;;;5066761;28;20962;-59
2021/03/15 00:56:37;;;;;;;4.60;3.17;;;6.50;1.00;;;;;;5065466;28;20188;-58
2021/03/15 00:59:02;;;;;;;3.53;2.80;;;6.40;1.00;;;;;;5071227;28;20198;-59
2021/03/15 01:01:28;;;;;;;3.30;3.00;;;6.30;1.00;;;;;;5070612;28;20270;-58
2021/03/15 01:03:53;;;;;;;5.00;2.70;;;6.40;1.00;;;;;;5070529;28;20191;-57
2021/03/15 01:06:19;;;;;;;3.57;2.97;;;6.40;1.00;;;;;;5070260;28;20210;-59
2021/03/15 01:08:44;;;;;;;4.20;3.80;;;6.50;1.00;;;;;;5071090;28;20342;-58
2021/03/15 01:11:10;;;;;;;4.33;3.00;;;6.50;1.00;;;;;;5070657;28;20292;-59
2021/03/15 01:13:37;;;;;;;4.13;3.03;;;6.30;1.00;;;;;;5071235;28;20176;-58
2021/03/15 01:16:03;;;;;;;5.00;3.47;;;6.30;1.00;;;;;;5073631;28;20442;-58
2021/03/15 01:18:30;;;;;;;4.23;3.47;;;6.40;1.00;;;;;;5071360;28;20525;-57
2021/03/15 01:20:55;;;;;;;4.43;3.30;;;6.40;1.00;;;;;;5071048;28;20515;-59
2021/03/15 01:23:21;;;;;;;3.57;3.27;;;6.30;1.00;;;;;;5071071;28;20496;-58
2021/03/15 01:25:47;;;;;;;5.70;3.23;;;6.10;1.00;;;;;;5071321;28;20187;-58
2021/03/15 01:28:15;;;;;;;4.10;3.43;;;6.00;1.00;;;;;;5072606;28;20591;-59
2021/03/15 01:30:44;;;;;;;5.70;3.50;;;6.10;1.00;;;;;;5071964;28;20480;-58
2021/03/15 01:33:10;;;;;;;3.93;3.37;;;6.10;1.00;;;;;;5084762;28;20428;-58
2021/03/15 01:35:36;;;;;;;5.27;3.40;;;6.00;1.00;;;;;;5077730;28;20772;-59
2021/03/15 01:38:06;;;;;;;6.63;3.40;;;6.00;1.00;;;;;;5070950;28;20445;-59
2021/03/15 01:40:32;;;;;;;8.10;4.53;;;6.10;1.00;;;;;;5071023;28;21170;-58
2021/03/15 01:42:58;;;;;;;4.20;3.30;;;6.30;1.00;;;;;;5071270;28;20442;-59
2021/03/15 01:45:24;;;;;;;4.50;3.53;;;6.30;1.00;;;;;;5079824;28;20439;-60
2021/03/15 01:47:50;;;;;;;6.13;4.93;;;6.40;1.00;;;;;;5073322;28;20187;-59
2021/03/15 01:50:17;;;;;;;5.77;4.40;;;6.50;1.00;;;;;;5069517;28;20560;-59
2021/03/15 01:52:44;;;;;;;6.33;4.60;;;6.30;1.00;;;;;;5069381;28;20191;-59
2021/03/15 01:55:12;;;;;;;5.40;3.60;;;6.40;1.00;;;;;;5069480;28;20426;-57
2021/03/15 01:57:38;;;;;;;5.40;3.97;;;6.60;1.00;;;;;;5069343;28;20445;-58
2021/03/15 02:00:06;;;;;;;10.07;4.57;;;6.60;1.00;;;;;;5069269;28;20521;-59
2021/03/15 02:02:35;;;;;;;6.07;4.73;;;6.50;1.00;;;;;;5075660;28;20472;-59
2021/03/15 02:05:00;;;;;;;5.43;4.30;;;6.40;1.00;;;;;;5073149;28;20458;-59
2021/03/15 02:07:26;;;;;;;6.83;4.87;;;6.50;1.00;;;;;;5073466;28;20446;-58
2021/03/15 02:09:52;;;;;;;6.77;4.33;;;6.50;1.00;;;;;;5070872;28;20211;-59
2021/03/15 02:12:49;;;;;;;11.17;4.30;;;6.50;1.00;;;;;;5070268;28;20195;-58
2021/03/15 02:15:28;;;;;;;8.07;5.03;;;6.40;1.00;;;;;;5047196;28;20476;-59
2021/03/15 02:18:19;;;;;;;7.00;4.73;;;6.60;1.00;;;;;;5069369;28;20498;-59
2021/03/15 02:21:22;;;;;;;6.50;4.53;;;6.50;1.00;;;;;;5066294;28;21001;-58
2021/03/15 02:23:57;;;;;;;4.90;4.23;;;6.80;1.00;;;;;;5070630;28;20811;-58
2021/03/15 02:26:58;;;;;;;7.97;4.77;;;6.80;1.00;;;;;;5070651;28;20430;-57
2021/03/15 02:29:27;;;;;;;5.73;4.50;;;6.80;1.00;;;;;;5073593;28;20460;-59
2021/03/15 02:32:28;;;;;;;7.30;4.87;;;6.80;1.00;;;;;;5065085;28;20523;-59
2021/03/15 02:35:04;;;;;;;5.70;4.87;;;6.90;1.00;;;;;;5064828;28;20516;-58
2021/03/15 02:37:36;;;;;;;5.00;4.47;;;7.00;1.00;;;;;;5071851;28;20482;-57
2021/03/15 02:40:08;;;;;;;5.43;4.30;;;7.00;1.00;;;;;;5075041;28;20472;-59
2021/03/15 02:42:36;;;;;;;4.80;4.30;;;7.00;1.00;;;;;;5090625;28;20432;-59
2021/03/15 02:45:03;;;;;;;10.83;4.73;;;7.00;1.00;;;;;;5089137;28;20435;-59
2021/03/15 02:47:29;;;;;;;9.00;5.40;;;6.80;1.00;;;;;;5069275;28;20926;-58
2021/03/15 02:50:07;;;;;;;8.23;4.83;;;6.80;1.00;;;;;;5069958;28;20506;-60
2021/03/15 02:52:37;;;;;;;9.70;4.83;;;6.80;1.00;;;;;;5067919;28;20263;-59
2021/03/15 02:55:03;;;;;;;6.40;5.00;;;6.80;1.00;;;;;;5072900;28;20433;-59
2021/03/15 02:57:35;;;;;;;8.00;5.30;;;6.80;1.00;;;;;;5074687;28;20446;-58
2021/03/15 03:00:01;;;;;;;6.13;4.57;;;6.90;1.00;;;;;;5075870;28;20791;-59
2021/03/15 03:02:27;;;;;;;4.97;4.30;;;7.00;1.00;;;;;;5074550;28;20444;-58
2021/03/15 03:04:54;;;;;;;6.73;4.20;;;7.00;1.00;;;;;;5073476;28;20531;-58
2021/03/15 03:07:21;;;;;;;5.50;4.07;;;7.00;1.00;;;;;;5086748;28;20437;-58
2021/03/15 03:09:47;;;;;;;5.27;4.30;;;7.00;1.00;;;;;;5074531;28;21035;-58
2021/03/15 03:12:15;;;;;;;7.80;4.37;;;7.00;1.00;;;;;;5072307;28;20547;-59
2021/03/15 03:14:42;;;;;;;6.83;4.63;;;7.00;1.00;;;;;;5064268;28;20442;-58
2021/03/15 03:17:09;;;;;;;7.30;4.50;;;7.00;1.00;;;;;;5083479;28;20976;-59
2021/03/15 03:19:37;;;;;;;7.67;5.13;;;7.00;1.00;;;;;;5085182;28;20519;-57
2021/03/15 03:22:04;;;;;;;4.40;3.80;;;6.90;1.00;;;;;;5073123;28;20441;-59
2021/03/15 03:24:31;;;;;;;6.50;4.47;;;7.00;1.00;;;;;;5073522;28;20470;-59
2021/03/15 03:26:58;;;;;;;6.80;4.27;;;6.90;1.00;;;;;;5071884;28;20445;-58
2021/03/15 03:29:24;;;;;;;11.83;4.53;;;6.90;1.00;;;;;;5073751;28;20516;-58
2021/03/15 03:31:52;;;;;;;7.43;4.90;;;6.90;1.00;;;;;;5076955;28;20442;-58
2021/03/15 03:34:17;;;;;;;9.03;4.87;;;6.90;1.00;;;;;;5079301;28;20449;-59
2021/03/15 03:36:43;;;;;;;8.27;5.13;;;6.90;1.00;;;;;;5090233;28;20432;-59
2021/03/15 03:39:10;;;;;;;6.40;4.57;;;7.00;1.00;;;;;;5073090;28;20183;-57
2021/03/15 03:41:38;;;;;;;7.90;5.03;;;6.90;1.00;;;;;;5073396;28;20214;-58
2021/03/15 03:44:05;;;;;;;6.10;4.63;;;7.00;1.00;;;;;;5072154;28;20454;-59
2021/03/15 03:46:32;;;;;;;4.30;3.80;;;7.00;1.00;;;;;;5070442;28;20823;-58
2021/03/15 03:48:57;;;;;;;5.70;5.00;;;7.00;1.00;;;;;;5074163;28;20442;-58
2021/03/15 03:51:30;;;;;;;5.40;4.90;;;7.00;1.00;;;;;;5075246;28;20444;-58
2021/03/15 03:54:27;;;;;;;6.83;4.57;;;7.00;1.00;;;;;;5078157;28;20195;-59
2021/03/15 03:57:10;;;;;;;4.90;3.90;;;8.60;1.00;;;;;;5069017;28;20943;-59
2021/03/15 03:59:42;;;;;;;6.97;3.93;;;7.60;1.00;;;;;;5072826;28;20433;-59
2021/03/15 04:02:11;;;;;;;7.40;5.13;;;6.90;1.00;;;;;;5073812;28;20441;-59
2021/03/15 04:04:48;;;;;;;7.70;5.10;;;7.10;1.00;;;;;;5073190;28;20950;-57
2021/03/15 04:07:21;;;;;;;9.73;4.97;;;7.10;1.00;;;;;;5073033;28;20444;-58
2021/03/15 04:09:51;;;;;;;6.13;4.93;;;6.90;1.00;;;;;;5076833;28;20454;-58
2021/03/15 04:12:20;;;;;;;5.80;4.90;;;6.90;1.00;;;;;;5077879;28;20783;-59
2021/03/15 04:14:50;;;;;;;6.23;5.63;;;6.90;1.00;;;;;;5071438;28;20422;-58
2021/03/15 04:17:31;;;;;;;5.80;4.40;;;7.20;1.00;;;;;;5068748;28;20508;-59
2021/03/15 04:20:04;;;;;;;7.13;5.00;;;7.10;1.00;;;;;;5072928;28;20828;-58
2021/03/15 04:22:31;;;;;;;9.57;5.50;;;7.10;1.00;;;;;;5074771;28;20480;-58
2021/03/15 04:25:01;;;;;;;7.20;5.23;;;6.90;1.00;;;;;;5070479;28;20485;-58
2021/03/15 04:27:29;;;;;;;10.70;4.60;;;7.00;1.00;;;;;;5066554;28;20970;-58
2021/03/15 04:29:55;;;;;;;7.13;4.60;;;6.90;1.00;;;;;;5070372;28;20819;-59
2021/03/15 04:32:22;;;;;;;7.50;4.70;;;7.10;1.00;;;;;;5071615;28;20445;-61
2021/03/15 04:34:50;;;;;;;5.67;4.77;;;7.10;1.00;;;;;;5072026;28;20904;-58
2021/03/15 04:37:16;;;;;;;9.83;4.47;;;7.00;1.00;;;;;;5068907;28;20841;-58
2021/03/15 04:39:42;;;;;;;6.23;4.77;;;6.90;1.00;;;;;;5070904;28;20460;-59
2021/03/15 04:42:09;;;;;;;6.70;5.03;;;6.80;1.00;;;;;;5086548;28;20451;-59
2021/03/15 04:44:38;;;;;;;7.50;4.80;;;6.90;1.00;;;;;;5076771;28;20445;-58
2021/03/15 04:47:05;;;;;;;7.00;4.70;;;7.00;1.00;;;;;;5070884;28;20441;-58
2021/03/15 04:49:32;;;;;;;6.40;5.23;;;7.10;1.00;;;;;;5067899;28;20480;-58
2021/03/15 04:52:00;;;;;;;7.27;5.30;;;7.20;1.00;;;;;;5071390;28;20974;-59
2021/03/15 04:54:26;;;;;;;6.33;4.90;;;7.20;1.00;;;;;;5069750;28;20445;-58
2021/03/15 04:56:54;;;;;;;6.03;4.93;;;7.10;1.00;;;;;;5059458;28;20461;-59
2021/03/15 04:59:20;;;;;;;8.33;5.67;;;7.20;1.00;;;;;;5069599;28;20455;-59
2021/03/15 05:01:48;;;;;;;8.20;5.50;;;7.20;1.00;;;;;;5071157;28;20804;-59
2021/03/15 05:04:15;;;;;;;6.20;5.60;;;7.00;1.00;;;;;;5071525;28;20473;-59
2021/03/15 05:06:42;;;;;;;7.47;5.70;;;7.00;1.00;;;;;;5076577;28;20450;-59
2021/03/15 05:09:10;;;;;;;7.27;4.53;;;6.90;1.00;;;;;;5069317;28;20444;-59
2021/03/15 05:11:38;;;;;;;6.33;4.80;;;6.90;1.00;;;;;;5070156;28;20457;-58
2021/03/15 05:14:05;;;;;;;7.07;5.43;;;6.90;1.00;;;;;;5071365;28;20507;-59
2021/03/15 05:16:35;;;;;;;13.30;6.00;;;6.80;1.00;;;;;;5071519;28;20926;-57
2021/03/15 05:19:03;;;;;;;8.43;5.67;;;6.70;1.00;;;;;;5088984;28;20933;-58
2021/03/15 05:21:31;;;;;;;6.13;5.03;;;6.70;1.00;;;;;;5069581;28;20525;-59
2021/03/15 05:23:58;;;;;;;9.33;6.20;;;6.50;1.00;;;;;;5078783;28;20480;-58
2021/03/15 05:26:24;;;;;;;7.77;5.87;;;6.50;1.00;;;;;;5076833;28;20450;-58
2021/03/15 05:28:50;;;;;;;8.07;6.00;;;6.60;1.00;;;;;;5070625;28;20476;-58
2021/03/15 05:31:18;;;;;;;9.40;7.20;;;6.50;1.00;;;;;;5070251;28;20470;-59
2021/03/15 05:33:45;;;;;;;6.67;5.47;;;6.60;1.00;;;;;;5070064;28;20477;-58
2021/03/15 05:36:12;;;;;;;8.23;6.10;;;6.50;1.00;;;;;;5069055;28;20469;-58
2021/03/15 05:38:38;;;;;;;11.13;6.93;;;6.60;1.00;;;;;;5071686;28;20445;-59
2021/03/15 05:41:09;;;;;;;12.10;6.13;;;6.60;1.00;;;;;;5079343;28;20894;-58
2021/03/15 05:44:02;;;;;;;8.33;5.40;;;6.50;1.00;;;;;;5065468;28;20971;-59
2021/03/15 05:46:54;;;;;;;14.70;6.87;;;6.40;1.00;;;;;;5070601;28;20831;-59
2021/03/15 05:49:38;;;;;;;12.47;6.67;;;6.30;1.00;;;;;;5070606;28;21029;-58
2021/03/15 05:52:09;;;;;;;9.40;6.03;;;6.20;1.00;;;;;;5067132;28;20444;-60
2021/03/15 05:55:03;;;;;;;11.17;7.23;;;6.50;1.00;;;;;;5070158;28;20464;-58
2021/03/15 05:57:53;;;;;;;7.43;6.70;;;6.50;1.00;;;;;;5067969;28;20537;-59
2021/03/15 06:00:36;;;;;;;9.83;6.57;;;6.80;1.00;;;;;;5070124;28;20968;-59
2021/03/15 06:03:39;;;;;;;9.00;6.13;;;6.80;1.00;;;;;;5071029;28;20821;-58
2021/03/15 06:06:08;;;;;;;7.50;6.20;;;6.90;1.00;;;;;;5068929;28;20472;-60
2021/03/15 06:08:44;;;;;;;8.57;6.03;;;7.00;1.00;;;;;;5070152;28;20611;-60
2021/03/15 06:11:17;;;;;;;9.80;6.40;;;7.10;1.00;;;;;;5070327;28;20480;-60
2021/03/15 06:13:43;;;;;;;7.67;5.97;;;7.30;1.00;;;;;;5069591;28;20433;-60
2021/03/15 06:16:11;;;;;;;6.90;5.27;;;7.30;1.00;;;;;;5070025;28;20612;-59
2021/03/15 06:18:40;;;;;;;6.30;5.63;;;7.20;1.00;;;;;;5076928;28;20753;-61
2021/03/15 06:21:10;;;;;;;6.97;5.10;;;7.10;1.00;;;;;;5070266;28;20520;-60
2021/03/15 06:23:37;;;;;;;12.60;7.77;;;7.10;1.00;;;;;;5072226;28;20473;-59
2021/03/15 06:26:03;;;;;;;9.27;5.60;;;7.20;1.00;;;;;;5076235;28;20531;-60
2021/03/15 06:28:29;;;;;;;7.83;5.90;;;7.30;1.00;;;;;;5072779;28;20437;-59
2021/03/15 06:30:55;;;;;;;5.57;4.67;;;7.20;1.00;;;;;;5084337;28;20515;-59
2021/03/15 06:33:21;;;;;;;7.73;5.60;;;7.20;1.00;;;;;;5072692;28;20188;-59
2021/03/15 06:35:59;;;;;;;5.63;4.83;;;7.20;1.00;;;;;;5072376;28;20892;-60
2021/03/15 06:38:27;;;;;;;8.13;6.40;;;7.40;1.00;;;;;;5073962;28;20460;-59
2021/03/15 06:40:53;;;;;;;7.70;5.30;;;7.40;1.00;;;;;;5054460;28;20433;-60
2021/03/15 06:43:21;;;;;;;7.73;6.03;;;7.50;1.00;;;;;;5073597;28;20992;-59
2021/03/15 06:45:48;;;;;;;7.67;5.67;;;7.60;1.00;;;;;;5081540;28;20437;-58
2021/03/15 06:48:14;;;;;;;6.70;5.50;;;7.80;1.00;;;;;;5068671;28;20453;-61
2021/03/15 06:50:40;;;;;;;6.03;5.43;;;7.80;1.00;;;;;;5071859;28;20634;-61
2021/03/15 06:53:06;;;;;;;9.00;5.90;;;7.90;1.00;;;;;;5073174;28;20950;-60
2021/03/15 06:55:45;;;;;;;10.73;5.73;;;8.00;1.00;;;;;;5073595;28;20207;-58
2021/03/15 06:58:25;;;;;;;8.63;5.23;;;8.10;1.00;;;;;;5072852;28;20441;-59
2021/03/15 07:01:14;;;;;;;8.43;6.07;;;8.20;1.00;;;;;;5071922;28;20849;-59
2021/03/15 07:03:41;;;;;;;10.03;6.37;;;8.10;1.00;;;;;;5083298;28;20471;-60
2021/03/15 07:06:08;;;;;;;6.17;5.40;;;8.10;1.00;;;;;;5093752;28;20500;-60
2021/03/15 07:08:34;;;;;;;7.30;5.20;;;8.20;1.00;;;;;;5079654;28;20524;-61
2021/03/15 07:11:00;;;;;;;6.87;5.50;;;8.20;1.00;;;;;;5073354;28;20523;-58
2021/03/15 07:13:33;;;;;;;7.47;5.00;;;8.20;1.00;;;;;;5072520;28;20895;-58
2021/03/15 07:15:58;;;;;;;9.00;5.10;;;8.20;1.00;;;;;;5074765;28;20449;-58
2021/03/15 07:18:26;;;;;;;5.20;4.70;;;8.40;1.00;;;;;;5071764;28;20440;-57
2021/03/15 07:20:57;;;;;;;5.63;4.77;;;8.50;1.00;;;;;;5071947;28;21581;-60
2021/03/15 07:23:38;;;;;;;8.13;6.03;;;8.30;1.00;;;;;;5073587;28;20564;-57
2021/03/15 07:26:14;;;;;;;7.17;5.23;;;8.50;1.00;;;;;;5071440;28;20979;-58
2021/03/15 07:28:41;;;;;;;7.23;5.37;;;8.50;1.00;;;;;;5072738;28;20999;-58
2021/03/15 07:31:27;;;;;;;6.83;5.10;;;8.50;1.00;;;;;;5072239;28;20467;-59
2021/03/15 07:33:56;;;;;;;7.83;4.60;;;8.40;1.00;;;;;;5072419;28;20528;-59
2021/03/15 07:36:32;;;;;;;9.50;5.30;;;8.30;1.00;;;;;;5071462;28;20453;-57
2021/03/15 07:39:00;;;;;;;6.70;4.57;;;8.40;1.00;;;;;;5071369;28;20777;-57
2021/03/15 07:41:26;;;;;;;8.53;5.57;;;8.40;1.00;;;;;;5086255;28;20429;-57
2021/03/15 07:43:53;;;;;;;7.63;5.83;;;8.20;1.00;;;;;;5073635;28;20437;-59
2021/03/15 07:46:20;;;;;;;6.53;4.90;;;8.80;1.00;;;;;;5070923;28;20652;-59
2021/03/15 07:48:46;;;;;;;6.27;5.10;;;8.30;1.00;;;;;;5072452;28;20442;-58
2021/03/15 07:51:12;;;;;;;8.90;5.13;;;8.20;1.00;;;;;;5070685;28;20854;-57
2021/03/15 07:53:47;;;;;;;8.60;5.30;;;8.10;1.00;;;;;;5072471;28;20445;-59
2021/03/15 07:56:22;;;;;;;6.73;5.60;;;8.20;1.00;;;;;;5069884;28;20210;-58
2021/03/15 07:58:49;;;;;;;8.90;5.27;;;8.10;1.00;;;;;;5070229;28;20469;-58
2021/03/15 08:01:16;;;;;;;5.77;4.97;;;8.30;1.00;;;;;;5071929;28;20441;-59
2021/03/15 08:03:42;;;;;;;9.70;5.43;;;8.40;1.00;;;;;;5071970;28;20485;-57
2021/03/15 08:06:09;;;;;;;8.17;5.40;;;8.40;1.00;;;;;;5072470;28;20437;-58
2021/03/15 08:08:36;;;;;;;7.50;5.30;;;8.60;1.00;;;;;;5072138;28;20442;-57
2021/03/15 08:11:04;;;;;;;5.87;5.00;;;8.70;1.00;;;;;;5072475;28;20515;-59
2021/03/15 08:13:35;;;;;;;6.70;4.53;;;8.70;1.00;;;;;;5072109;28;20473;-59
2021/03/15 08:16:02;;;;;;;8.57;5.87;;;8.70;1.00;;;;;;5071395;28;20436;-58
2021/03/15 08:18:29;;;;;;;6.37;4.83;;;8.60;1.00;;;;;;5070242;28;20528;-58
2021/03/15 08:21:25;;;;;;;9.07;5.30;;;8.70;1.00;;;;;;5071412;28;20560;-58
2021/03/15 08:23:51;;;;;;;7.07;5.63;;;8.30;1.00;;;;;;5059858;28;20479;-59
2021/03/15 08:26:17;;;;;;;7.13;5.30;;;8.40;1.00;;;;;;5077363;28;20941;-57
2021/03/15 08:28:44;;;;;;;5.93;5.33;;;8.60;1.00;;;;;;5079066;28;20486;-57
2021/03/15 08:31:26;;;;;;;6.27;5.63;;;8.60;1.00;;;;;;5077019;28;20486;-59
2021/03/15 08:33:53;;;;;;;5.83;5.23;;;8.40;1.00;;;;;;5085408;28;20486;-57
2021/03/15 08:36:19;;;;;;;7.40;5.73;;;8.40;1.00;;;;;;5078577;28;20556;-59
2021/03/15 08:38:45;;;;;;;11.43;5.93;;;8.40;1.00;;;;;;5073159;28;20441;-58
2021/03/15 08:41:17;;;;;;;11.10;4.80;;;8.20;1.00;;;;;;5085817;28;20283;-58
2021/03/15 08:43:44;;;;;;;7.40;5.80;;;8.30;1.00;;;;;;5080902;28;20467;-59
2021/03/15 08:46:11;;;;;;;8.50;4.83;;;8.40;1.00;;;;;;5073356;28;20434;-59
2021/03/15 08:48:39;;;;;;;6.30;5.17;;;8.50;1.00;;;;;;5084333;28;20468;-59
2021/03/15 08:51:13;;;;;;;14.73;5.83;;;8.60;1.00;;;;;;5080171;28;20556;-59
2021/03/15 08:53:44;;;;;;;9.90;5.13;;;8.70;1.00;;;;;;5083114;28;20441;-59
2021/03/15 08:56:19;;;;;;;12.03;6.30;;;8.70;1.00;;;;;;5088726;28;20441;-58
2021/03/15 08:58:53;;;;;;;6.67;4.80;;;8.60;1.00;;;;;;5082266;28;20467;-58
2021/03/15 09:01:21;;;;;;;6.73;5.50;;;8.60;1.00;;;;;;5070631;28;21075;-60
2021/03/15 09:03:48;;;;;;;7.10;5.27;;;9.60;1.00;;;;;;5076695;28;20437;-57
2021/03/15 09:06:15;;;;;;;8.57;5.80;;;8.80;1.00;;;;;;5078501;28;20950;-58
2021/03/15 09:09:24;;;;;;;6.47;5.20;;;8.90;1.00;;;;;;5079621;28;20473;-58
2021/03/15 09:11:52;;;;;;;8.77;5.70;;;9.00;1.00;;;;;;5010002;28;20446;-57
2021/03/15 09:14:18;;;;;;;7.60;5.23;;;9.10;1.00;;;;;;5020583;28;20501;-58
2021/03/15 09:16:48;;;;;;;7.70;4.77;;;9.10;1.00;;;;;;5055308;28;20445;-58
2021/03/15 09:19:22;;;;;;;9.63;4.67;;;9.20;1.00;;;;;;5084262;28;20437;-58
2021/03/15 09:21:57;;;;;;;5.53;5.03;;;8.80;1.00;;;;;;5069735;28;20433;-57
2021/03/15 09:24:45;;;;;;;5.90;4.87;;;8.40;1.00;;;;;;5079434;28;20483;-58
2021/03/15 09:27:34;;;;;;;4.70;4.17;;;8.30;1.00;;;;;;5078599;28;20441;-59
2021/03/15 09:30:06;;;;;;;3.83;3.47;;;8.30;1.00;;;;;;5080665;28;20463;-58
2021/03/15 09:32:37;;;;;;;5.80;3.90;;;8.50;1.00;;;;;;5088097;28;20795;-57
2021/03/15 09:35:17;;;;;;;5.13;3.77;;;8.60;1.00;;;;;;5070506;28;20445;-58
2021/03/15 09:37:48;;;;;;;5.37;3.50;;;8.50;1.00;;;;;;5077333;28;20436;-58
2021/03/15 09:40:15;;;;;;;5.20;3.80;;;8.50;1.00;;;;;;5071162;28;20449;-57
2021/03/15 09:42:41;;;;;;;4.30;3.90;;;8.40;1.00;;;;;;5075273;28;20449;-57
2021/03/15 09:45:08;;;;;;;4.40;4.00;;;8.40;1.00;;;;;;5089213;28;20464;-59
2021/03/15 09:47:34;;;;;;;4.63;2.93;;;7.90;1.00;;;;;;5090844;28;20782;-58
2021/03/15 09:50:00;;;;;;;6.97;3.77;;;7.60;1.00;;;;;;5090882;28;20469;-58
2021/03/15 09:52:25;;;;;;;4.37;2.80;;;7.50;1.00;;;;;;5089466;28;20645;-58
2021/03/15 09:54:53;;;;;;;3.93;3.10;;;7.40;1.00;;;;;;5079950;28;20309;-59
2021/03/15 09:57:20;;;;;;;4.33;3.47;;;7.40;1.00;;;;;;5079455;28;20184;-57
2021/03/15 09:59:46;;;;;;;5.67;3.53;;;7.40;1.00;;;;;;5076822;28;20437;-57
2021/03/15 10:02:28;;;;;;;3.73;2.90;;;7.40;1.00;;;;;;5089678;28;20477;-59
2021/03/15 10:04:53;;;;;;;5.23;3.70;;;7.40;1.00;;;;;;5079414;28;20186;-59
2021/03/15 10:07:19;;;;;;;3.57;3.27;;;7.50;1.00;;;;;;5088952;28;20433;-58
2021/03/15 10:09:45;;;;;;;3.60;3.10;;;7.50;1.00;;;;;;5080983;28;20699;-59
2021/03/15 10:12:20;;;;;;;3.50;3.20;;;7.50;1.00;;;;;;5081945;28;20433;-58
2021/03/15 10:14:46;;;;;;;3.80;3.10;;;7.60;1.00;;;;;;5091378;28;20251;-59
2021/03/15 10:17:20;;;;;;;3.97;3.57;;;7.80;1.00;;;;;;5088591;28;20993;-58
2021/03/15 10:19:45;;;;;;;4.10;3.27;;;8.10;1.00;;;;;;5076312;28;20524;-58
2021/03/15 10:22:14;;;;;;;5.80;3.20;;;8.30;1.00;;;;;;5082912;28;20540;-58
2021/03/15 10:24:41;;;;;;;3.40;3.10;;;8.60;1.00;;;;;;5090334;28;20210;-59
2021/03/15 10:27:08;;;;;;;3.80;3.33;;;9.40;1.00;;;;;;5081789;28;20449;-59
2021/03/15 10:29:35;;;;;;;3.90;3.33;;;9.00;1.00;;;;;;5073862;28;20469;-59
2021/03/15 10:32:05;;;;;;;3.67;3.33;;;9.10;1.00;;;;;;5077744;28;20433;-58
2021/03/15 10:34:31;;;;;;;6.40;3.97;;;9.20;1.00;;;;;;5084220;28;20794;-58
2021/03/15 10:36:57;;;;;;;3.63;3.33;;;9.20;1.00;;;;;;5074209;28;20437;-58
2021/03/15 10:39:24;;;;;;;4.80;3.80;;;9.20;1.00;;;;;;5083112;28;20636;-59
2021/03/15 10:41:51;;;;;;;4.13;3.27;;;9.10;1.00;;;;;;5084568;28;20473;-59
2021/03/15 10:44:19;;;;;;;3.80;3.20;;;9.00;1.00;;;;;;5087501;28;20903;-59
2021/03/15 10:46:47;;;;;;;3.53;3.13;;;9.00;1.00;;;;;;5088407;28;20426;-58
2021/03/15 10:49:21;;;;;;;4.13;3.23;;;9.10;1.00;;;;;;5073813;28;20741;-58
2021/03/15 10:51:51;;;;;;;4.77;3.83;;;9.10;1.00;;;;;;5078053;28;20428;-58
2021/03/15 10:54:27;;;;;;;4.70;3.80;;;9.00;1.00;;;;;;5084337;28;20468;-59
2021/03/15 10:57:14;;;;;;;4.37;3.97;;;9.10;1.00;;;;;;5084103;28;20436;-58
2021/03/15 10:59:40;;;;;;;4.70;4.20;;;9.00;1.00;;;;;;5081234;28;20977;-59
2021/03/15 11:02:07;;;;;;;5.67;3.90;;;9.00;1.00;;;;;;5081352;28;20457;-58
2021/03/15 11:04:38;;;;;;;5.20;3.97;;;9.00;1.00;;;;;;5072550;28;20442;-60
2021/03/15 11:07:24;;;;;;;3.70;3.40;;;9.20;1.00;;;;;;5088798;28;20497;-58
2021/03/15 11:09:54;;;;;;;5.53;3.57;;;9.20;1.00;;;;;;5080910;28;20494;-60
2021/03/15 11:12:46;;;;;;;4.07;3.23;;;9.10;1.00;;;;;;5083599;28;20492;-58
2021/03/15 11:15:36;;;;;;;5.00;3.43;;;9.10;1.00;;;;;;5080755;28;20425;-60
2021/03/15 11:18:11;;;;;;;6.10;3.90;;;9.20;1.00;;;;;;5077272;28;20425;-59
2021/03/15 11:20:44;;;;;;;4.27;3.87;;;9.30;1.00;;;;;;5073388;28;20916;-58
2021/03/15 11:23:11;;;;;;;7.40;4.10;;;9.50;1.00;;;;;;5073009;28;20504;-59
2021/03/15 11:25:37;;;;;;;4.80;4.20;;;9.60;1.00;;;;;;5073605;28;20439;-59
2021/03/15 11:28:06;;;;;;;4.67;4.27;;;9.50;1.00;;;;;;5075085;28;20454;-60
2021/03/15 11:30:33;;;;;;;5.23;4.67;;;9.30;1.00;;;;;;5069301;28;20985;-60
2021/03/15 11:33:08;;;;;;;5.33;4.77;;;;;;;;;;5069911;28;20453;-59
2021/03/15 11:35:36;;;;;;;4.83;4.27;;;8.90;1.00;;;;;;5083002;28;20497;-60
2021/03/15 11:38:02;;;;;;;5.87;5.27;;;8.80;1.00;;;;;;5070074;28;20441;-57
2021/03/15 11:40:30;;;;;;;5.43;4.93;;;8.70;1.00;;;;;;5070322;28;20460;-58
2021/03/15 11:42:56;;;;;;;4.23;3.73;;;8.80;1.00;;;;;;5077651;28;20456;-59
2021/03/15 11:45:23;;;;;;;5.70;5.20;;;8.90;1.00;;;;;;5077006;28;20445;-59
2021/03/15 11:47:49;;;;;;;4.80;4.33;;;8.70;1.00;;;;;;5071192;28;20445;-59
2021/03/15 11:50:15;;;;;;;5.37;4.57;;;8.70;1.00;;;;;;5071432;28;20462;-59
2021/03/15 11:52:41;;;;;;;5.37;4.90;;;8.70;1.00;;;;;;5071097;28;21993;-60
2021/03/15 11:55:11;;;;;;;5.60;4.40;;;5.20;1.00;;;;;;5082902;28;20174;-58
2021/03/15 11:57:37;;;;;;;6.23;4.90;;;8.70;1.00;;;;;;5082783;28;20437;-58
2021/03/15 12:00:09;;;;;;;5.70;5.20;;;8.60;1.00;;;;;;5068279;28;20457;-57
2021/03/15 12:02:36;;;;;;;7.80;4.73;;;8.50;1.00;;;;;;5075036;28;20446;-57
2021/03/15 12:05:04;;;;;;;6.90;4.67;;;8.30;1.00;;;;;;5065702;28;20501;-59
2021/03/15 12:07:30;;;;;;;5.40;4.90;;;8.30;1.00;;;;;;5069322;28;20460;-58
2021/03/15 12:09:55;;;;;;;8.60;5.43;;;8.40;1.00;;;;;;5069566;28;20823;-58
2021/03/15 12:12:21;;;;;;;5.27;4.53;;;8.80;1.00;;;;;;5071600;28;20231;-60
2021/03/15 12:14:47;;;;;;;5.07;4.57;;;9.30;1.00;;;;;;5070165;28;20180;-59
2021/03/15 12:17:12;;;;;;;4.23;3.83;;;9.30;1.00;;;;;;5071213;28;20192;-58
2021/03/15 12:19:38;;;;;;;4.93;3.00;;;9.60;1.00;;;;;;5070665;28;20188;-59
2021/03/15 12:22:03;;;;;;;6.63;3.70;;;9.40;1.00;;;;;;5071371;28;20658;-59
2021/03/15 12:24:29;;;;;;;3.53;3.13;;;9.10;1.00;;;;;;5071061;28;20219;-59
2021/03/15 12:26:54;;;;;;;6.63;3.33;;;9.40;1.00;;;;;;5071372;28;20183;-59
2021/03/15 12:29:20;;;;;;;3.23;2.33;;;9.30;1.00;;;;;;5071850;28;20274;-59
2021/03/15 12:31:47;;;;;;;3.50;3.20;;;9.40;1.00;;;;;;5072149;28;20248;-59
2021/03/15 12:34:12;;;;;;;3.03;2.73;;;9.30;1.00;;;;;;5071650;28;20430;-58
2021/03/15 12:36:38;;;;;;;3.73;3.43;;;9.00;1.00;;;;;;5071988;28;20272;-58
2021/03/15 12:39:04;;;;;;;3.00;2.80;;;8.90;1.00;;;;;;5071421;28;20202;-58
2021/03/15 12:41:29;;;;;;;3.30;3.00;;;8.90;1.00;;;;;;5079518;28;20233;-56
2021/03/15 12:43:55;;;;;;;3.57;3.00;;;8.70;1.00;;;;;;5092289;28;20441;-58
2021/03/15 12:46:21;;;;;;;3.10;2.80;;;8.50;1.00;;;;;;5082136;28;20195;-58
2021/03/15 12:48:47;;;;;;;3.50;2.80;;;8.30;1.00;;;;;;5087874;28;21395;-59
2021/03/15 12:51:13;;;;;;;13.40;5.13;;;8.20;1.00;;;;;;5068029;28;20342;-59
2021/03/15 12:53:38;;;;;;;9.93;3.93;;;8.10;1.00;;;;;;5072418;28;20540;-59
2021/03/15 12:56:05;;;;;;;2.30;2.20;;;8.20;1.00;;;;;;5078902;28;20187;-59
2021/03/15 12:58:31;;;;;;;2.80;2.60;;;8.40;1.00;;;;;;5074474;28;20572;-59
2021/03/15 13:00:57;;;;;;;3.07;2.83;;;8.40;1.00;;;;;;5080041;28;20493;-59
2021/03/15 13:03:23;;;;;;;3.23;2.90;;;;;;;;;;5071801;28;20567;-58
2021/03/15 13:05:49;;;;;;;3.30;3.00;;;8.30;1.00;;;;;;5072987;28;20927;-59
2021/03/15 13:08:14;;;;;;;10.07;3.67;;;8.30;1.00;;;;;;5071659;28;20445;-59
2021/03/15 13:10:40;;;;;;;4.20;3.83;;;8.30;1.00;;;;;;5070534;28;20691;-59
2021/03/15 13:13:06;;;;;;;3.77;3.40;;;8.50;1.00;;;;;;5071692;28;20184;-58
2021/03/15 13:15:32;;;;;;;4.37;4.00;;;8.50;1.00;;;;;;5070756;28;20434;-58
2021/03/15 13:17:58;;;;;;;5.00;4.30;;;8.60;1.00;;;;;;5067311;28;20254;-59
2021/03/15 13:20:24;;;;;;;8.77;5.10;;;8.60;1.00;;;;;;5077165;28;20648;-59